Time;durP1;ratioP1;P1;durP2;ratioP2;P2;SDS_P1;SDS_P2;PMS_P1;PMS_P2;Temp;Humidity;BMP_temperature;BMP_pressure;BME280_temperature;BME280_humidity;BME280_pressure;Samples;Min_cycle;Max_cycle;Signal;HPM_P1;HPM_P2
2021/01/22 00:00:52;;;;;;;62.05;31.00;;;;;;;-1.65;94.91;100059.83;1730590;81;21592;-70
2021/01/22 00:03:21;;;;;;;62.75;32.53;;;;;;;-1.64;94.90;100061.52;1720455;81;21007;-70
2021/01/22 00:05:50;;;;;;;66.82;32.63;;;;;;;-1.64;94.86;100062.38;1717956;83;22061;-70
2021/01/22 00:08:18;;;;;;;55.12;29.05;;;;;;;-1.64;94.85;100062.38;1723141;82;21590;-69
2021/01/22 00:10:46;;;;;;;69.27;34.05;;;;;;;-1.65;94.89;100067.06;1718764;82;21609;-72
2021/01/22 00:13:15;;;;;;;63.52;31.93;;;;;;;-1.66;94.91;100060.25;1718341;82;21514;-70
2021/01/22 00:15:43;;;;;;;74.17;36.53;;;;;;;-1.66;94.99;100066.64;1725363;82;21557;-69
2021/01/22 00:18:11;;;;;;;68.75;34.20;;;;;;;-1.66;95.02;100058.98;1718098;83;21651;-69
2021/01/22 00:20:40;;;;;;;66.30;32.93;;;;;;;-1.66;95.08;100044.94;1717494;82;21605;-71
2021/01/22 00:23:08;;;;;;;63.05;31.60;;;;;;;-1.64;95.16;100043.66;1717148;82;21643;-71
2021/01/22 00:25:37;;;;;;;67.40;32.83;;;;;;;-1.64;95.15;100046.20;1724262;82;21736;-71
2021/01/22 00:28:05;;;;;;;63.55;32.53;;;;;;;-1.64;95.15;100039.83;1718071;83;21572;-69
2021/01/22 00:30:33;;;;;;;70.37;35.00;;;;;;;-1.66;95.19;100038.98;1721779;81;21961;-71
2021/01/22 00:33:03;;;;;;;67.08;35.17;;;;;;;-1.66;95.25;100041.54;1720332;81;21561;-71
2021/01/22 00:35:32;;;;;;;55.80;29.35;;;;;;;-1.63;95.26;100040.24;1717983;83;21036;-70
2021/01/22 00:38:00;;;;;;;71.92;35.23;;;;;;;-1.62;95.28;100037.69;1715286;82;21621;-71
2021/01/22 00:40:29;;;;;;;63.13;33.08;;;;;;;-1.62;95.17;100036.41;1722686;82;21618;-71
2021/01/22 00:42:57;;;;;;;66.33;32.70;;;;;;;-1.61;95.15;100033.42;1720979;82;22368;-70
2021/01/22 00:45:25;;;;;;;63.38;32.93;;;;;;;-1.61;95.23;100038.53;1726226;82;21539;-66
2021/01/22 00:47:54;;;;;;;69.03;35.10;;;;;;;-1.60;95.23;100036.39;1717905;82;20945;-70
2021/01/22 00:50:22;;;;;;;69.58;34.78;;;;;;;-1.59;95.23;100029.97;1707169;82;21603;-68
2021/01/22 00:52:52;;;;;;;66.42;34.55;;;;;;;-1.57;95.29;100021.02;1702543;84;21606;-65
2021/01/22 00:55:22;;;;;;;61.75;32.48;;;;;;;-1.55;95.18;100026.54;1678245;83;22236;-70
2021/01/22 00:58:10;;;;;;;65.70;32.60;;;;;;;-1.55;95.13;100023.14;1663031;85;21084;-72
2021/01/22 01:00:39;;;;;;;69.07;34.78;;;;;;;-1.56;95.02;100017.19;1661246;84;21697;-70
2021/01/22 01:03:21;;;;;;;69.77;34.90;;;;;;;-1.53;95.03;100011.21;1879694;76;28222;-70
2021/01/22 01:05:50;;;;;;;60.48;31.68;;;;;;;-1.59;95.07;100009.97;1774901;80;21598;-70
2021/01/22 01:08:19;;;;;;;66.17;34.33;;;;;;;-1.59;95.08;100013.37;1804466;78;21434;-66
2021/01/22 01:10:55;;;;;;;;;;;;;;;-1.60;95.08;100013.42;1773738;80;21785;-70
2021/01/22 01:13:34;;;;;;;66.80;31.25;;;;;;;-1.60;95.12;100017.25;1771585;80;20502;-70
2021/01/22 01:16:21;;;;;;;71.85;33.73;;;;;;;-1.64;95.11;100010.47;1789499;79;20982;-71
2021/01/22 01:18:49;;;;;;;58.55;31.57;;;;;;;-1.66;95.23;100012.19;1785093;79;20950;-71
2021/01/22 01:21:18;;;;;;;64.95;33.50;;;;;;;-1.67;95.27;100016.44;1776840;80;22432;-70
2021/01/22 01:23:46;;;;;;;62.00;32.40;;;;;;;-1.67;95.28;100015.59;1807183;78;21159;-71
2021/01/22 01:26:15;;;;;;;62.20;31.90;;;;;;;-1.69;95.30;100011.77;1762917;80;21555;-71
2021/01/22 01:28:44;;;;;;;63.63;33.38;;;;;;;-1.69;95.36;100015.60;1804249;79;21654;-66
2021/01/22 01:31:13;;;;;;;56.65;29.20;;;;;;;-1.67;95.43;100014.31;1808860;79;21559;-68
2021/01/22 01:33:41;;;;;;;62.75;31.62;;;;;;;-1.66;95.42;100000.69;1773097;80;22249;-66
2021/01/22 01:36:10;;;;;;;52.50;28.42;;;;;;;-1.66;95.39;99998.14;1804331;78;21543;-64
2021/01/22 01:38:39;;;;;;;67.47;33.50;;;;;;;-1.66;95.37;100005.38;1800840;79;21544;-63
2021/01/22 01:41:09;;;;;;;65.05;35.28;;;;;;;-1.66;95.38;99992.61;1775048;80;21483;-68
2021/01/22 01:43:40;;;;;;;63.08;33.28;;;;;;;-1.65;95.45;100000.69;1797119;79;20965;-65
2021/01/22 01:46:08;;;;;;;65.47;33.30;;;;;;;-1.64;95.47;99992.16;1779320;80;22248;-66
2021/01/22 01:48:36;;;;;;;63.13;33.60;;;;;;;-1.63;95.42;99993.86;1801388;79;21623;-67
2021/01/22 01:51:05;;;;;;;70.28;35.83;;;;;;;-1.62;95.41;99990.88;1801317;79;21564;-69
2021/01/22 01:53:34;;;;;;;65.12;35.23;;;;;;;-1.60;95.40;99984.06;1801088;79;21008;-65
2021/01/22 01:56:04;;;;;;;53.50;30.12;;;;;;;-1.60;95.36;99978.95;1771255;80;21542;-64
2021/01/22 01:58:32;;;;;;;55.63;29.57;;;;;;;-1.59;95.27;99978.06;1769344;80;22066;-64
2021/01/22 02:01:00;;;;;;;66.00;34.00;;;;;;;-1.59;95.29;99983.17;1754605;79;21552;-66
2021/01/22 02:03:29;;;;;;;64.42;33.05;;;;;;;-1.58;95.29;99986.14;1786673;79;21456;-69
2021/01/22 02:05:58;;;;;;;62.40;33.15;;;;;;;-1.58;95.24;99996.35;1789884;80;21555;-67
2021/01/22 02:08:27;;;;;;;63.23;31.55;;;;;;;-1.59;95.16;99984.45;1789906;80;21416;-65
2021/01/22 02:10:55;;;;;;;61.00;30.52;;;;;;;-1.60;95.15;99981.51;1786049;80;22164;-67
2021/01/22 02:13:24;;;;;;;62.33;32.53;;;;;;;-1.61;95.20;99985.77;1762919;81;21564;-64
2021/01/22 02:15:52;;;;;;;66.20;34.15;;;;;;;-1.60;95.22;99975.94;1779520;79;21467;-63
2021/01/22 02:18:21;;;;;;;70.00;35.10;;;;;;;-1.60;95.19;99970.83;1788848;79;21580;-66
2021/01/22 02:21:13;;;;;;;66.40;34.55;;;;;;;-1.59;95.17;99967.42;1796742;79;21422;-67
2021/01/22 02:23:42;;;;;;;65.32;34.35;;;;;;;-1.58;95.05;99968.27;1760374;80;22232;-69
2021/01/22 02:26:19;;;;;;;60.80;32.40;;;;;;;-1.60;95.08;99968.28;1781851;80;21508;-71
2021/01/22 02:28:48;;;;;;;63.92;33.10;;;;;;;-1.60;95.04;99971.30;1772251;80;21567;-71
2021/01/22 02:31:17;;;;;;;62.83;31.62;;;;;;;-1.60;95.13;99967.47;1781780;80;21556;-71
2021/01/22 02:33:46;;;;;;;62.13;30.52;;;;;;;-1.60;94.96;99961.90;1762240;80;21738;-67
2021/01/22 02:36:14;;;;;;;56.70;29.87;;;;;;;-1.62;94.83;99961.09;1753330;80;22232;-71
2021/01/22 02:38:42;;;;;;;56.15;30.08;;;;;;;-1.65;94.91;99958.56;1764839;80;21478;-70
2021/01/22 02:41:11;;;;;;;49.58;28.67;;;;;;;-1.65;94.86;99958.56;1757001;80;21493;-69
2021/01/22 02:43:40;;;;;;;47.20;26.10;;;;;;;-1.65;94.89;99948.35;1835999;77;20997;-69
2021/01/22 02:46:09;;;;;;;52.03;28.85;;;;;;;-1.67;94.80;99951.77;1764723;80;21592;-64
2021/01/22 02:48:39;;;;;;;52.15;27.50;;;;;;;-1.70;94.61;99947.53;1796317;79;21196;-65
2021/01/22 02:51:12;;;;;;;51.77;27.75;;;;;;;-1.76;94.54;99953.53;1794470;79;21577;-70
2021/01/22 02:53:40;;;;;;;47.67;27.27;;;;;;;-1.80;94.57;99941.66;1800839;79;21524;-67
2021/01/22 02:56:21;;;;;;;51.88;29.57;;;;;;;-1.84;94.61;99942.53;1766685;80;21588;-68
2021/01/22 02:59:36;;;;;;;52.90;26.75;;;;;;;-1.85;94.67;99945.09;1763587;80;21563;-71
2021/01/22 03:02:40;;;;;;;51.73;27.87;;;;;;;-1.88;94.73;99949.78;1763295;80;22349;-70
2021/01/22 03:05:11;;;;;;;52.58;28.62;;;;;;;-1.93;94.64;99945.14;1743591;80;21604;-72
2021/01/22 03:07:47;;;;;;;52.27;27.98;;;;;;;-1.98;94.74;99941.77;1765759;79;21555;-71
2021/01/22 03:10:18;;;;;;;52.83;27.00;;;;;;;-2.00;94.77;99938.84;1786322;79;21630;-66
2021/01/22 03:12:51;;;;;;;45.08;26.27;;;;;;;-2.01;94.81;99939.27;1784181;79;21010;-64
2021/01/22 03:15:20;;;;;;;52.27;28.38;;;;;;;-2.04;94.81;99935.03;1783586;79;22152;-71
2021/01/22 03:17:49;;;;;;;52.33;29.48;;;;;;;-2.07;94.80;99937.60;1785535;79;20974;-72
2021/01/22 03:20:20;;;;;;;51.63;27.42;;;;;;;-2.08;94.93;99947.39;1786682;79;21560;-70
2021/01/22 03:22:49;;;;;;;52.67;27.50;;;;;;;-2.08;94.95;99940.16;1761227;79;21579;-72
2021/01/22 03:25:17;;;;;;;44.25;24.70;;;;;;;-2.08;95.00;99937.19;1787856;79;21548;-71
2021/01/22 03:27:45;;;;;;;45.23;25.05;;;;;;;-2.08;94.95;99929.95;1783960;79;22095;-71
2021/01/22 03:30:16;;;;;;;45.25;25.08;;;;;;;-2.10;94.83;99927.42;1784486;79;21512;-71
2021/01/22 03:32:45;;;;;;;52.13;28.52;;;;;;;-2.12;94.84;99918.92;1786553;79;21018;-71
2021/01/22 03:35:13;;;;;;;47.98;26.55;;;;;;;-2.13;94.82;99913.83;1785710;79;21489;-72
2021/01/22 03:37:42;;;;;;;42.58;23.57;;;;;;;-2.14;94.85;99914.69;1783525;79;21531;-72
2021/01/22 03:40:11;;;;;;;49.42;26.80;;;;;;;-2.16;94.90;99901.10;1785289;79;22079;-71
2021/01/22 03:42:40;;;;;;;50.03;28.12;;;;;;;-2.18;94.91;99898.98;1786497;79;21133;-70
2021/01/22 03:45:10;;;;;;;47.10;25.30;;;;;;;-2.17;94.98;99894.30;1784584;79;20985;-71
2021/01/22 03:47:40;;;;;;;50.60;30.27;;;;;;;-2.18;95.00;99888.36;1783458;79;21523;-72
2021/01/22 03:50:10;;;;;;;47.27;26.40;;;;;;;-2.19;94.92;99879.01;1785729;79;21579;-72
2021/01/22 03:52:39;;;;;;;49.05;28.30;;;;;;;-2.21;94.91;99866.70;1786830;79;21299;-72
2021/01/22 03:55:08;;;;;;;51.23;25.88;;;;;;;-2.24;94.96;99867.98;1784424;79;21579;-71
2021/01/22 03:57:37;;;;;;;46.37;27.27;;;;;;;-2.25;95.03;99884.58;1783865;79;21583;-70
2021/01/22 04:00:06;;;;;;;42.15;22.95;;;;;;;-2.27;95.12;99906.69;1783819;79;21591;-71
2021/01/22 04:02:35;;;;;;;46.73;26.37;;;;;;;-2.28;95.34;99922.42;1789474;78;20997;-71
2021/01/22 04:05:05;;;;;;;44.27;24.80;;;;;;;-2.26;95.38;99932.19;1803411;78;22723;-72
2021/01/22 04:07:33;;;;;;;45.20;25.12;;;;;;;-2.25;95.41;99908.80;1804491;78;20949;-71
2021/01/22 04:10:02;;;;;;;49.55;27.77;;;;;;;-2.26;95.51;99930.91;1806658;78;21515;-71
2021/01/22 04:12:31;;;;;;;49.60;26.80;;;;;;;-2.24;95.56;99921.55;1804914;78;21514;-68
2021/01/22 04:14:59;;;;;;;46.05;26.35;;;;;;;-2.22;95.64;99921.54;1803222;78;21638;-68
2021/01/22 04:17:29;;;;;;;46.85;24.70;;;;;;;-2.20;95.67;99917.28;1805417;78;22202;-72
2021/01/22 04:19:58;;;;;;;40.43;23.85;;;;;;;-2.17;95.67;99912.16;1806340;78;22198;-66
2021/01/22 04:22:27;;;;;;;42.00;23.40;;;;;;;-2.18;95.64;99902.81;1806610;78;20981;-64
2021/01/22 04:24:56;;;;;;;46.85;26.25;;;;;;;-2.20;95.69;99899.00;1805942;78;21552;-66
2021/01/22 04:27:24;;;;;;;44.25;25.00;;;;;;;-2.19;95.79;99917.27;1803476;78;21613;-70
2021/01/22 04:29:53;;;;;;;47.65;26.05;;;;;;;-2.18;95.86;99911.31;1804675;78;21471;-71
2021/01/22 04:32:21;;;;;;;36.35;21.52;;;;;;;-2.15;95.91;99924.48;1806552;78;21595;-70
2021/01/22 04:34:50;;;;;;;40.80;22.15;;;;;;;-2.14;95.92;99910.44;1804768;78;21594;-67
2021/01/22 04:37:19;;;;;;;52.05;27.90;;;;;;;-2.13;95.97;99910.01;1803358;78;21028;-71
2021/01/22 04:39:48;;;;;;;50.38;27.25;;;;;;;-2.12;95.97;99919.36;1806660;78;21724;-70
2021/01/22 04:42:17;;;;;;;47.80;26.82;;;;;;;-2.11;96.02;99909.14;1806123;78;22091;-69
2021/01/22 04:44:45;;;;;;;46.70;24.85;;;;;;;-2.09;96.08;99925.72;1806627;78;21574;-71
2021/01/22 04:47:13;;;;;;;45.08;25.95;;;;;;;-2.07;96.14;99921.45;1780928;78;21463;-71
2021/01/22 04:49:44;;;;;;;58.38;32.28;;;;;;;-2.05;96.17;99932.49;1803274;78;21586;-71
2021/01/22 04:52:12;;;;;;;46.28;25.82;;;;;;;-2.06;96.22;99920.16;1800703;78;21490;-67
2021/01/22 04:54:42;;;;;;;42.45;23.80;;;;;;;-2.01;96.25;99927.79;1789366;80;22486;-67
2021/01/22 04:57:11;;;;;;;43.40;23.60;;;;;;;-2.00;96.25;99914.60;1789445;78;21432;-71
2021/01/22 04:59:51;;;;;;;46.00;26.75;;;;;;;-1.97;96.25;99917.10;1789391;80;20950;-67
2021/01/22 05:02:20;;;;;;;43.00;23.73;;;;;;;-1.96;96.31;99908.59;1788944;80;20921;-70
2021/01/22 05:04:50;;;;;;;47.95;26.48;;;;;;;-1.93;96.39;99902.19;1769803;81;21532;-67
2021/01/22 05:07:22;;;;;;;44.85;25.10;;;;;;;-1.90;96.30;99903.45;1769943;81;21376;-71
2021/01/22 05:09:50;;;;;;;45.35;24.45;;;;;;;-1.90;96.24;99898.34;1769819;80;21584;-70
2021/01/22 05:12:19;;;;;;;39.13;23.45;;;;;;;-1.90;96.34;99900.47;1769846;79;21480;-64
2021/01/22 05:14:47;;;;;;;42.62;25.15;;;;;;;-1.89;96.34;99894.94;1769791;79;21594;-66
2021/01/22 05:17:15;;;;;;;47.62;24.70;;;;;;;-1.89;96.34;99903.86;1769832;79;21579;-64
2021/01/22 05:19:44;;;;;;;52.45;28.40;;;;;;;-1.90;96.40;99906.84;1769893;79;22255;-65
2021/01/22 05:22:14;;;;;;;43.65;23.85;;;;;;;-1.89;96.52;99903.86;1769812;81;21497;-65
2021/01/22 05:24:43;;;;;;;54.58;29.60;;;;;;;-1.87;96.65;99898.32;1769839;81;20918;-66
2021/01/22 05:27:13;;;;;;;45.03;25.23;;;;;;;-1.84;96.67;99893.19;1769766;81;21500;-64
2021/01/22 05:29:43;;;;;;;46.73;25.23;;;;;;;-1.83;96.75;99900.84;1769834;81;20923;-64
2021/01/22 05:32:32;;;;;;;45.10;24.95;;;;;;;-1.73;97.43;99893.95;1769833;81;22112;-67
2021/01/22 05:35:00;;;;;;;44.08;24.00;;;;;;;-1.65;97.43;99893.89;1769797;79;21496;-64
2021/01/22 05:37:29;;;;;;;46.13;26.68;;;;;;;-1.55;97.59;99886.11;1769834;80;21597;-65
2021/01/22 05:40:14;;;;;;;45.15;25.48;;;;;;;-1.50;97.10;99892.45;1769779;80;21623;-64
2021/01/22 05:42:54;;;;;;;47.53;26.12;;;;;;;-1.50;96.86;99883.09;1769866;81;21547;-64
2021/01/22 05:45:44;;;;;;;44.25;25.30;;;;;;;-1.50;96.69;99901.39;1769826;81;22291;-63
2021/01/22 05:48:23;;;;;;;42.45;24.23;;;;;;;-1.49;96.67;99892.44;1769667;81;20962;-64
2021/01/22 05:50:58;;;;;;;51.48;30.80;;;;;;;-1.48;96.61;99884.35;1770016;80;20926;-68
2021/01/22 05:53:27;;;;;;;42.38;24.37;;;;;;;-1.47;96.67;99880.94;1769986;81;20941;-66
2021/01/22 05:56:15;;;;;;;43.75;25.75;;;;;;;-1.46;96.66;99896.24;1769974;81;21874;-64
2021/01/22 05:58:47;;;;;;;35.98;21.05;;;;;;;-1.45;96.73;99914.53;1769412;79;22328;-70
2021/01/22 06:01:21;;;;;;;48.35;28.07;;;;;;;-1.40;96.90;99934.92;1777570;78;22262;-64
2021/01/22 06:03:51;;;;;;;41.88;24.02;;;;;;;-1.36;96.97;99917.44;1780558;78;22138;-66
2021/01/22 06:06:20;;;;;;;45.40;25.97;;;;;;;-1.33;96.95;99896.98;1794657;77;21004;-74
2021/01/22 06:08:59;;;;;;;42.50;25.48;;;;;;;-1.29;96.85;99906.73;1809134;77;21043;-65
2021/01/22 06:11:32;;;;;;;50.75;27.82;;;;;;;-1.27;96.81;99905.86;1831819;77;21186;-67
2021/01/22 06:14:06;;;;;;;43.73;26.05;;;;;;;-1.26;96.81;99896.48;1813745;79;21093;-67
2021/01/22 06:16:36;;;;;;;53.02;27.75;;;;;;;-1.24;96.86;99909.66;1788866;79;21051;-70
2021/01/22 06:19:07;;;;;;;43.83;26.27;;;;;;;-1.19;96.92;99901.92;1765274;79;21027;-64
2021/01/22 06:21:43;;;;;;;43.90;24.85;;;;;;;-1.16;96.77;99904.44;1787569;79;21123;-63
2021/01/22 06:24:12;;;;;;;48.42;27.32;;;;;;;-1.14;96.63;99900.16;1778026;79;21361;-73
2021/01/22 06:26:41;;;;;;;47.83;27.75;;;;;;;-1.12;96.56;99890.34;1790019;79;21093;-75
2021/01/22 06:29:10;;;;;;;56.08;32.33;;;;;;;-1.11;96.55;99889.48;1748219;79;21614;-67
2021/01/22 06:31:39;;;;;;;51.95;28.15;;;;;;;-1.10;96.53;99888.63;1795937;79;21574;-68
2021/01/22 06:34:08;;;;;;;51.48;27.17;;;;;;;-1.08;96.52;99890.73;1790512;79;21665;-69
2021/01/22 06:36:37;;;;;;;46.45;26.12;;;;;;;-1.05;96.53;99888.57;1784273;79;21700;-66
2021/01/22 06:39:06;;;;;;;43.63;24.20;;;;;;;-1.02;96.51;99889.81;1769193;79;21686;-68
2021/01/22 06:41:35;;;;;;;51.40;28.05;;;;;;;-0.99;96.52;99894.05;1765428;81;21149;-67
2021/01/22 06:44:03;;;;;;;50.03;27.87;;;;;;;-0.98;96.59;99895.31;1786679;79;20932;-71
2021/01/22 06:46:33;;;;;;;42.58;25.50;;;;;;;-0.94;96.70;99881.63;1785377;79;21053;-68
2021/01/22 06:49:05;;;;;;;51.37;27.82;;;;;;;-0.90;96.74;99897.78;1778633;79;21356;-66
2021/01/22 06:51:36;;;;;;;45.48;25.65;;;;;;;-0.85;96.68;99897.30;1785902;79;21089;-64
2021/01/22 06:54:18;;;;;;;42.70;25.05;;;;;;;-0.80;96.70;99891.70;1797822;77;21033;-68
2021/01/22 06:56:59;;;;;;;48.80;26.60;;;;;;;-0.77;96.61;99896.74;1805792;77;21017;-68
2021/01/22 06:59:35;;;;;;;45.55;24.45;;;;;;;-0.75;96.54;99890.75;1759092;80;21020;-69
2021/01/22 07:02:02;;;;;;;42.55;24.12;;;;;;;-0.71;96.57;99891.55;1815133;77;21260;-68
2021/01/22 07:04:41;;;;;;;37.17;21.62;;;;;;;-0.68;96.51;99880.86;1781869;78;21068;-67
2021/01/22 07:07:10;;;;;;;46.28;27.13;;;;;;;-0.66;96.44;99887.23;1791820;78;21068;-70
2021/01/22 07:09:49;;;;;;;43.80;23.90;;;;;;;-0.65;96.47;99893.19;1803989;79;21065;-69
2021/01/22 07:12:39;;;;;;;44.98;26.87;;;;;;;-0.63;96.47;99903.81;1804964;79;20998;-67
2021/01/22 07:15:27;;;;;;;42.05;25.00;;;;;;;-0.62;96.46;99902.11;1802245;78;22317;-70
2021/01/22 07:18:00;;;;;;;45.55;24.65;;;;;;;-0.60;96.58;99901.66;1799611;79;20998;-68
2021/01/22 07:20:30;;;;;;;53.83;28.12;;;;;;;-0.55;96.67;99911.39;1794486;79;20918;-66
2021/01/22 07:22:59;;;;;;;55.52;28.35;;;;;;;-0.51;96.75;99896.42;1784761;79;21109;-69
2021/01/22 07:25:37;;;;;;;43.50;25.35;;;;;;;-0.45;96.68;99889.95;1781181;79;21048;-68
2021/01/22 07:28:22;;;;;;;50.88;27.98;;;;;;;-0.41;96.79;99894.16;1784091;79;22081;-69
2021/01/22 07:30:53;;;;;;;55.53;29.77;;;;;;;-0.38;96.73;99896.21;1788946;79;20942;-69
2021/01/22 07:33:39;;;;;;;55.52;29.92;;;;;;;-0.35;96.59;99892.33;1801271;79;20997;-69
2021/01/22 07:36:19;;;;;;;50.98;26.12;;;;;;;-0.31;96.51;99892.30;1801145;79;21025;-68
2021/01/22 07:38:52;;;;;;;47.05;27.13;;;;;;;-0.29;96.40;99872.22;1784032;79;21002;-68
2021/01/22 07:41:21;;;;;;;50.65;28.25;;;;;;;-0.30;96.28;99869.25;1783610;79;21367;-70
2021/01/22 07:44:00;;;;;;;50.23;27.52;;;;;;;-0.28;96.44;99882.02;1786895;79;20943;-67
2021/01/22 07:46:45;;;;;;;50.88;29.63;;;;;;;-0.27;96.46;99865.37;1786899;79;21022;-65
2021/01/22 07:49:14;;;;;;;52.43;30.57;;;;;;;-0.24;96.39;99859.36;1787054;79;21481;-66
2021/01/22 07:51:43;;;;;;;50.80;29.02;;;;;;;-0.22;96.39;99857.19;1786964;79;21592;-66
2021/01/22 07:54:12;;;;;;;50.80;29.27;;;;;;;-0.20;96.25;99852.05;1784900;79;22082;-68
2021/01/22 07:56:41;;;;;;;53.10;27.90;;;;;;;-0.18;96.21;99863.11;1781100;79;21647;-69
2021/01/22 07:59:14;;;;;;;54.83;30.00;;;;;;;-0.18;96.20;99862.67;1793115;79;20982;-68
2021/01/22 08:01:42;;;;;;;47.95;28.57;;;;;;;-0.15;96.17;99861.35;1765417;79;21639;-70
2021/01/22 08:04:11;;;;;;;50.35;27.82;;;;;;;-0.11;96.29;99863.43;1787960;79;21131;-67
2021/01/22 08:06:48;;;;;;;55.08;29.95;;;;;;;-0.08;96.17;99859.55;1735879;82;21366;-67
2021/01/22 08:09:17;;;;;;;49.50;28.25;;;;;;;-0.05;96.09;99859.50;1747095;82;21613;-66
2021/01/22 08:11:52;;;;;;;54.25;28.98;;;;;;;-0.02;96.02;99859.02;1777744;80;21036;-68
2021/01/22 08:14:30;;;;;;;51.08;27.93;;;;;;;0.04;96.08;99862.31;1767035;80;21054;-67
2021/01/22 08:17:03;;;;;;;53.10;29.52;;;;;;;0.07;96.00;99851.59;1805296;77;21065;-65
2021/01/22 08:19:33;;;;;;;49.55;27.48;;;;;;;0.10;95.74;99861.79;1784392;79;21378;-68
2021/01/22 08:22:02;;;;;;;49.63;27.95;;;;;;;0.11;95.69;99861.36;1820306;77;21039;-67
2021/01/22 08:24:30;;;;;;;50.48;28.10;;;;;;;0.15;95.75;99858.72;1833629;77;20954;-67
2021/01/22 08:27:04;;;;;;;48.55;26.02;;;;;;;0.20;95.72;99849.69;1812839;77;21650;-68
2021/01/22 08:29:34;;;;;;;46.70;25.62;;;;;;;0.23;95.59;99850.48;1808810;79;21013;-71
2021/01/22 08:32:05;;;;;;;54.77;30.52;;;;;;;0.27;95.45;99853.40;1811492;78;21191;-68
2021/01/22 08:34:34;;;;;;;59.10;32.53;;;;;;;0.27;95.24;99842.31;1777839;79;21016;-68
2021/01/22 08:37:05;;;;;;;50.70;28.47;;;;;;;0.29;95.20;99843.13;1782682;79;22202;-69
2021/01/22 08:40:00;;;;;;;49.18;27.07;;;;;;;0.31;95.09;99839.67;1791205;79;21492;-68
2021/01/22 08:42:30;;;;;;;55.73;32.17;;;;;;;0.32;94.94;99834.96;1794722;79;21013;-68
2021/01/22 08:45:02;;;;;;;53.00;29.50;;;;;;;0.33;94.86;99833.25;1812371;78;21370;-68
2021/01/22 08:47:32;;;;;;;51.40;29.57;;;;;;;0.36;94.85;99834.47;1812005;79;22050;-71
2021/01/22 08:50:03;;;;;;;55.23;29.72;;;;;;;0.38;94.56;99833.16;1802504;79;21014;-70
2021/01/22 08:52:31;;;;;;;57.83;30.65;;;;;;;0.38;94.51;99827.61;1777036;79;20918;-68
2021/01/22 08:55:00;;;;;;;53.15;29.70;;;;;;;0.41;94.43;99830.52;1777429;79;21544;-70
2021/01/22 08:57:30;;;;;;;52.73;29.07;;;;;;;0.44;94.45;99821.50;1798775;79;21689;-69
2021/01/22 08:59:59;;;;;;;52.33;28.57;;;;;;;0.46;94.19;99809.08;1801504;79;21077;-69
2021/01/22 09:02:43;;;;;;;53.02;30.05;;;;;;;0.50;94.18;99813.27;1800150;78;21655;-69
2021/01/22 09:05:14;;;;;;;53.73;30.30;;;;;;;0.51;94.06;99812.40;1780490;78;20919;-71
2021/01/22 09:07:42;;;;;;;54.53;30.10;;;;;;;0.54;93.99;99802.09;1786120;79;21033;-69
2021/01/22 09:10:29;;;;;;;50.25;29.15;;;;;;;0.55;93.82;99801.22;1810790;79;21182;-73
2021/01/22 09:13:17;;;;;;;55.05;30.75;;;;;;;0.58;93.81;99806.29;1811107;79;21155;-67
2021/01/22 09:15:46;;;;;;;40.08;24.67;;;;;;;0.62;93.81;99808.36;1811538;79;21005;-71
2021/01/22 09:18:21;;;;;;;56.98;31.93;;;;;;;0.62;93.69;99807.92;1784688;78;21085;-69
2021/01/22 09:21:06;;;;;;;54.42;30.08;;;;;;;0.65;93.70;99810.86;1774258;79;21603;-71
2021/01/22 09:23:36;;;;;;;53.90;31.50;;;;;;;0.70;93.81;99815.46;1796574;78;21195;-69
2021/01/22 09:26:06;;;;;;;46.35;26.52;;;;;;;0.72;93.64;99811.59;1776008;79;21031;-70
2021/01/22 09:28:34;;;;;;;49.08;28.65;;;;;;;0.71;93.36;99813.75;1794976;78;21065;-68
2021/01/22 09:31:03;;;;;;;52.08;28.35;;;;;;;0.69;93.37;99818.90;1754646;79;20998;-70
2021/01/22 09:33:32;;;;;;;46.95;27.15;;;;;;;0.70;93.67;99815.46;1818073;77;21168;-71
2021/01/22 09:36:00;;;;;;;52.55;29.42;;;;;;;0.74;93.68;99809.84;1786863;79;22058;-71
2021/01/22 09:38:30;;;;;;;57.15;31.57;;;;;;;0.74;93.33;99806.84;1797971;79;21129;-69
2021/01/22 09:40:58;;;;;;;52.55;29.02;;;;;;;0.75;93.33;99795.72;1757674;80;21050;-70
2021/01/22 09:43:26;;;;;;;52.75;28.87;;;;;;;0.78;93.06;99785.84;1785152;78;21060;-71
2021/01/22 09:45:57;;;;;;;48.48;28.75;;;;;;;0.78;93.06;99783.28;1825504;77;21011;-71
2021/01/22 09:48:25;;;;;;;52.93;30.12;;;;;;;0.78;93.00;99779.44;1799074;79;21253;-72
2021/01/22 09:50:53;;;;;;;50.85;29.00;;;;;;;0.80;93.06;99782.81;1770522;79;20983;-65
2021/01/22 09:53:22;;;;;;;52.25;31.73;;;;;;;0.85;93.09;99790.79;1779129;80;21718;-67
2021/01/22 09:55:53;;;;;;;52.62;29.50;;;;;;;0.90;93.08;99790.70;1782735;79;21026;-68
2021/01/22 09:58:21;;;;;;;53.35;27.90;;;;;;;0.94;92.68;99782.07;1773894;79;21065;-67
2021/01/22 10:00:50;;;;;;;48.35;28.30;;;;;;;0.93;92.66;99782.50;1756245;79;21517;-70
2021/01/22 10:03:18;;;;;;;46.48;26.90;;;;;;;0.93;92.61;99781.66;1749301;80;20995;-69
2021/01/22 10:05:47;;;;;;;54.50;29.90;;;;;;;0.91;92.54;99774.00;1768401;78;21679;-72
2021/01/22 10:08:19;;;;;;;52.95;28.45;;;;;;;0.93;92.78;99774.81;1795493;79;21077;-71
2021/01/22 10:10:48;;;;;;;54.35;30.32;;;;;;;0.95;92.75;99770.94;1787483;77;21694;-72
2021/01/22 10:13:17;;;;;;;55.60;30.02;;;;;;;0.95;92.55;99766.66;1764888;80;21351;-72
2021/01/22 10:15:45;;;;;;;48.38;28.10;;;;;;;0.96;92.63;99775.19;1788116;79;21758;-71
2021/01/22 10:18:15;;;;;;;53.80;28.60;;;;;;;0.97;92.68;99764.91;1766967;79;20947;-70
2021/01/22 10:20:50;;;;;;;47.50;26.97;;;;;;;0.99;92.46;99755.91;1805544;79;21092;-69
2021/01/22 10:23:18;;;;;;;59.13;31.12;;;;;;;0.98;92.39;99766.59;1857640;75;20946;-69
2021/01/22 10:25:49;;;;;;;53.10;29.32;;;;;;;0.98;92.44;99761.47;1847362;76;21382;-69
2021/01/22 10:28:18;;;;;;;53.68;29.50;;;;;;;1.00;92.46;99753.74;1778080;79;21480;-70
2021/01/22 10:30:54;;;;;;;58.10;31.15;;;;;;;1.02;92.30;99750.70;1790990;79;22108;-68
2021/01/22 10:33:23;;;;;;;54.67;31.60;;;;;;;1.04;92.36;99748.95;1777077;78;21583;-71
2021/01/22 10:35:54;;;;;;;53.10;30.68;;;;;;;1.10;92.26;99747.98;1859687;76;21057;-70
2021/01/22 10:38:22;;;;;;;50.20;28.83;;;;;;;1.16;92.16;99753.82;1842499;76;21267;-70
2021/01/22 10:40:52;;;;;;;48.83;28.95;;;;;;;1.19;91.79;99740.09;1838294;76;21594;-70
2021/01/22 10:43:25;;;;;;;52.93;31.35;;;;;;;1.20;91.72;99734.89;1839177;76;21714;-70
2021/01/22 10:45:59;;;;;;;51.63;28.77;;;;;;;1.21;91.73;99734.45;1827088;76;21128;-71
2021/01/22 10:48:28;;;;;;;48.10;28.27;;;;;;;1.28;91.63;99734.28;1866355;76;21045;-71
2021/01/22 10:50:57;;;;;;;48.75;30.35;;;;;;;1.33;91.46;99731.17;1857664;76;21398;-68
2021/01/22 10:53:26;;;;;;;48.70;29.87;;;;;;;1.39;91.20;99725.06;1853643;77;21052;-68
2021/01/22 10:55:54;;;;;;;49.70;29.60;;;;;;;1.42;91.04;99716.02;1764651;79;21047;-69
2021/01/22 10:58:22;;;;;;;54.20;31.93;;;;;;;1.47;90.75;99718.47;1787430;79;21562;-71
2021/01/22 11:00:53;;;;;;;48.45;28.90;;;;;;;1.50;90.45;99720.97;1842100;76;21037;-64
2021/01/22 11:03:21;;;;;;;45.12;27.27;;;;;;;1.52;90.52;99719.20;1771392;81;21623;-68
2021/01/22 11:05:50;;;;;;;53.63;30.10;;;;;;;1.55;90.51;99715.28;1768877;80;21619;-72
2021/01/22 11:08:18;;;;;;;58.38;33.18;;;;;;;1.57;90.44;99718.66;1747617;81;21024;-64
2021/01/22 11:10:49;;;;;;;57.13;33.30;;;;;;;1.61;90.35;99716.38;1733724;81;21091;-68
2021/01/22 11:13:17;;;;;;;60.20;34.70;;;;;;;1.66;90.19;99713.27;1753316;80;21190;-69
2021/01/22 11:15:45;;;;;;;60.85;33.67;;;;;;;1.71;90.05;99707.58;1794083;79;21380;-66
2021/01/22 11:18:16;;;;;;;54.90;31.50;;;;;;;1.73;89.57;99704.53;1809075;79;21512;-67
2021/01/22 11:20:44;;;;;;;61.13;34.67;;;;;;;1.73;89.60;99701.97;1786569;79;20989;-65
2021/01/22 11:23:13;;;;;;;60.85;32.93;;;;;;;1.74;89.52;99698.52;1782877;79;21610;-69
2021/01/22 11:25:41;;;;;;;51.92;31.27;;;;;;;1.77;89.45;99695.87;1784629;79;21112;-71
2021/01/22 11:28:10;;;;;;;52.93;31.00;;;;;;;1.81;89.48;99691.07;1809084;78;22158;-67
2021/01/22 11:30:38;;;;;;;48.38;29.48;;;;;;;1.84;89.17;99689.71;1808696;79;21661;-68
2021/01/22 11:33:06;;;;;;;52.48;30.85;;;;;;;1.85;88.96;99686.70;1804619;79;21563;-73
2021/01/22 11:35:35;;;;;;;55.75;32.55;;;;;;;1.85;88.77;99685.42;1777304;80;21424;-68
2021/01/22 11:38:04;;;;;;;52.38;30.97;;;;;;;1.88;88.73;99682.77;1777201;80;20997;-71